Time;durP1;ratioP1;P1;durP2;ratioP2;P2;SDS_P1;SDS_P2;PMS_P1;PMS_P2;Temp;Humidity;BMP_temperature;BMP_pressure;BME280_temperature;BME280_humidity;BME280_pressure;Samples;Min_cycle;Max_cycle;Signal;HPM_P1;HPM_P2
2022/12/23 00:00:59;;;;;;;;;;;;;;;;;;5113658;28;1902;-37
2022/12/23 00:03:27;;;;;;;;;;;;;;;;;;5113569;28;1983;-38
2022/12/23 00:05:55;;;;;;;;;;;;;;;;;;5097432;28;1967;-38
2022/12/23 00:08:22;;;;;;;;;;;;;;;;;;5092751;28;2003;-37
2022/12/23 00:10:50;;;;;;;;;;;;;;;;;;5092793;28;2030;-37
2022/12/23 00:16:07;;;;;;;;;;;;;;;;;;5092883;28;1687;-37
2022/12/23 00:18:35;;;;;;;;;;;;;;;;;;5092498;28;2131;-38
2022/12/23 00:21:06;;;;;;;;;;;;;;;;;;5092719;28;1910;-37
2022/12/23 00:23:36;;;;;;;;;;;;;;;;;;5092650;28;1817;-37
2022/12/23 00:26:03;;;;;;;;;;;;;;;;;;5092377;28;1958;-37
2022/12/23 00:28:33;;;;;;;;;;;;;;;;;;5092489;28;2011;-37
2022/12/23 00:31:02;;;;;;;;;;;;;;;;;;5092417;28;1985;-37
2022/12/23 00:33:34;;;;;;;;;;;;;;;;;;5092301;28;1978;-37
2022/12/23 00:36:09;;;;;;;;;;;;;;;;;;5098318;28;1726;-38
2022/12/23 00:44:07;;;;;;;;;;;;;;;;;;5112185;28;2074;-38
2022/12/23 00:46:34;;;;;;;;;;;;;;;;;;5112836;28;2181;-38
2022/12/23 00:51:48;;;;;;;;;;;;;;;;;;5112448;28;1900;-37
2022/12/23 00:54:15;;;;;;;;;;;;;;;;;;5112243;28;1918;-38
2022/12/23 00:56:42;;;;;;;;;;;;;;;;;;5112357;28;2071;-38
2022/12/23 00:59:10;;;;;;;;;;;;;;;;;;5112313;28;2142;-38
2022/12/23 01:07:08;;;;;;;;;;;;;;;;;;5112206;28;1913;-37
2022/12/23 01:09:36;;;;;;;;;;;;;;;;;;5111550;28;1885;-38
2022/12/23 01:12:03;;;;;;;;;;;;;;;;;;5112296;28;2211;-38
2022/12/23 01:14:30;;;;;;;;;;;;;;;;;;5111877;28;1837;-37
2022/12/23 01:16:57;;;;;;;;;;;;;;;;;;5111673;28;1875;-37
2022/12/23 01:19:25;;;;;;;;;;;;;;;;;;5111493;28;1982;-37
2022/12/23 01:21:52;;;;;;;;;;;;;;;;;;5111659;28;1853;-37
2022/12/23 01:24:19;;;;;;;;;;;;;;;;;;5112038;28;1981;-37
2022/12/23 01:26:46;;;;;;;;;;;;;;;;;;5111737;28;1942;-37
2022/12/23 01:29:13;;;;;;;;;;;;;;;;;;5110519;28;1985;-38
2022/12/23 01:31:41;;;;;;;;;;;;;;;;;;5111764;28;2105;-38
2022/12/23 01:34:09;;;;;;;;;;;;;;;;;;5111495;28;2021;-37
2022/12/23 01:36:36;;;;;;;;;;;;;;;;;;5111621;28;2018;-38
2022/12/23 01:39:03;;;;;;;;;;;;;;;;;;5110992;28;1844;-36
2022/12/23 01:44:37;;;;;;;;;;;;;;;;;;5111569;28;1992;-37
2022/12/23 01:47:07;;;;;;;;;;;;;;;;;;5111785;28;1704;-38
2022/12/23 01:49:34;;;;;;;;;;;;;;;;;;5110968;28;2005;-38
2022/12/23 01:52:01;;;;;;;;;;;;;;;;;;5111149;28;2022;-38
2022/12/23 01:54:29;;;;;;;;;;;;;;;;;;5110939;28;1995;-37
2022/12/23 01:56:58;;;;;;;;;;;;;;;;;;5111094;28;2098;-39
2022/12/23 02:05:08;;;;;;;;;;;;;;;;;;5073609;28;1909;-38
2022/12/23 02:10:22;;;;;;;;;;;;;;;;;;5111096;28;2027;-37
2022/12/23 02:13:03;;;;;;;;;;;;;;;;;;5111028;28;1706;-37
2022/12/23 02:18:36;;;;;;;;;;;;;;;;;;5110832;28;1641;-37
2022/12/23 02:21:06;;;;;;;;;;;;;;;;;;5110774;28;1823;-37
2022/12/23 02:23:36;;;;;;;;;;;;;;;;;;5110341;28;1971;-37
2022/12/23 02:26:18;;;;;;;;;;;;;;;;;;5111299;28;1915;-37
2022/12/23 02:28:58;;;;;;;;;;;;;;;;;;5111252;28;1981;-38
2022/12/23 02:31:32;;;;;;;;;;;;;;;;;;5110860;28;1839;-37
2022/12/23 02:34:20;;;;;;;;;;;;;;;;;;5110941;28;1988;-37
2022/12/23 02:37:05;;;;;;;;;;;;;;;;;;5110478;28;2045;-37
2022/12/23 02:39:44;;;;;;;;;;;;;;;;;;5110714;28;1863;-38
2022/12/23 02:42:15;;;;;;;;;;;;;;;;;;5110824;28;1997;-38
2022/12/23 02:44:45;;;;;;;;;;;;;;;;;;5110706;28;1405;-38
2022/12/23 02:47:16;;;;;;;;;;;;;;;;;;5110895;28;2086;-38
2022/12/23 02:49:46;;;;;;;;;;;;;;;;;;5110784;28;1977;-38
2022/12/23 02:52:14;;;;;;;;;;;;;;;;;;5111087;28;2213;-37
2022/12/23 02:54:51;;;;;;;;;;;;;;;;;;5110873;28;1983;-38
2022/12/23 02:57:20;;;;;;;;;;;;;;;;;;5110440;28;1877;-38
2022/12/23 02:59:48;;;;;;;;;;;;;;;;;;5110510;28;1897;-38
2022/12/23 03:02:15;;;;;;;;;;;;;;;;;;5110900;28;1876;-38
2022/12/23 03:04:42;;;;;;;;;;;;;;;;;;5112418;28;2000;-38
2022/12/23 03:07:20;;;;;;;;;;;;;;;;;;5115121;28;1891;-37
2022/12/23 03:09:53;;;;;;;;;;;;;;;;;;5114219;28;1973;-37
2022/12/23 03:12:41;;;;;;;;;;;;;;;;;;5114256;28;2004;-38
2022/12/23 03:15:27;;;;;;;;;;;;;;;;;;5114567;28;2135;-38
2022/12/23 03:17:57;;;;;;;;;;;;;;;;;;5114039;28;2122;-38
2022/12/23 03:20:34;;;;;;;;;;;;;;;;;;5114025;28;2145;-39
2022/12/23 03:23:05;;;;;;;;;;;;;;;;;;5114137;28;1310;-37
2022/12/23 03:25:39;;;;;;;;;;;;;;;;;;5114091;28;1973;-38
2022/12/23 03:28:23;;;;;;;;;;;;;;;;;;5113998;28;2035;-38
2022/12/23 03:30:53;;;;;;;;;;;;;;;;;;5113989;28;1919;-38
2022/12/23 03:33:23;;;;;;;;;;;;;;;;;;5113840;28;1901;-37
2022/12/23 03:36:06;;;;;;;;;;;;;;;;;;5114056;28;1978;-38
2022/12/23 03:38:35;;;;;;;;;;;;;;;;;;5112457;28;1952;-37
2022/12/23 03:41:05;;;;;;;;;;;;;;;;;;5113851;28;2003;-37
2022/12/23 03:43:35;;;;;;;;;;;;;;;;;;5113863;28;1865;-38
2022/12/23 03:46:05;;;;;;;;;;;;;;;;;;5114160;28;1850;-37
2022/12/23 03:48:35;;;;;;;;;;;;;;;;;;5113713;28;2306;-37
2022/12/23 03:51:14;;;;;;;;;;;;;;;;;;5113333;28;1861;-37
2022/12/23 03:53:44;;;;;;;;;;;;;;;;;;5114301;27;1917;-38
2022/12/23 03:56:20;;;;;;;;;;;;;;;;;;5113654;28;2070;-37
2022/12/23 03:58:52;;;;;;;;;;;;;;;;;;5113345;27;2153;-38
2022/12/23 04:01:22;;;;;;;;;;;;;;;;;;5113309;28;2094;-37
2022/12/23 04:04:10;;;;;;;;;;;;;;;;;;5112891;28;2019;-37
2022/12/23 04:07:03;;;;;;;;;;;;;;;;;;5093176;28;1966;-37
2022/12/23 04:09:31;;;;;;;;;;;;;;;;;;5092605;28;1915;-37
2022/12/23 04:11:58;;;;;;;;;;;;;;;;;;5092523;28;2111;-37
2022/12/23 04:14:25;;;;;;;;;;;;;;;;;;5092620;28;1978;-37
2022/12/23 04:16:54;;;;;;;;;;;;;;;;;;5092867;28;1890;-37
2022/12/23 04:19:21;;;;;;;;;;;;;;;;;;5092565;28;1921;-38
2022/12/23 04:21:48;;;;;;;;;;;;;;;;;;5092305;28;1861;-38
2022/12/23 04:24:15;;;;;;;;;;;;;;;;;;5092924;28;2016;-38
2022/12/23 04:26:42;;;;;;;;;;;;;;;;;;5092293;28;2144;-39
2022/12/23 04:29:10;;;;;;;;;;;;;;;;;;5092380;28;1947;-38
2022/12/23 04:31:37;;;;;;;;;;;;;;;;;;5092316;28;2090;-38
2022/12/23 04:34:04;;;;;;;;;;;;;;;;;;5092642;28;1877;-38
2022/12/23 04:36:31;;;;;;;;;;;;;;;;;;5092395;28;1900;-38
2022/12/23 04:38:58;;;;;;;;;;;;;;;;;;5092475;28;1960;-38
2022/12/23 04:41:25;;;;;;;;;;;;;;;;;;5097596;28;2050;-41
2022/12/23 04:43:52;;;;;;;;;;;;;;;;;;5112494;28;2087;-39
2022/12/23 04:46:20;;;;;;;;;;;;;;;;;;5112783;28;2018;-37
2022/12/23 04:48:47;;;;;;;;;;;;;;;;;;5112425;28;2159;-38
2022/12/23 04:51:14;;;;;;;;;;;;;;;;;;5112466;28;1940;-38
2022/12/23 04:53:41;;;;;;;;;;;;;;;;;;5111965;28;2013;-38
2022/12/23 04:56:08;;;;;;;;;;;;;;;;;;5112344;28;2145;-38
2022/12/23 04:58:35;;;;;;;;;;;;;;;;;;5112145;28;2046;-38
2022/12/23 05:01:04;;;;;;;;;;;;;;;;;;5112195;28;2090;-43
2022/12/23 05:03:31;;;;;;;;;;;;;;;;;;5112224;28;1465;-39
2022/12/23 05:05:58;;;;;;;;;;;;;;;;;;5095649;28;1909;-39
2022/12/23 05:08:25;;;;;;;;;;;;;;;;;;5091457;28;1965;-38
2022/12/23 05:10:53;;;;;;;;;;;;;;;;;;5091708;28;1905;-38
2022/12/23 05:13:20;;;;;;;;;;;;;;;;;;5091867;28;2088;-38
2022/12/23 05:15:49;;;;;;;;;;;;;;;;;;5091649;28;1971;-38
2022/12/23 05:18:16;;;;;;;;;;;;;;;;;;5091774;28;1954;-38
2022/12/23 05:20:43;;;;;;;;;;;;;;;;;;5091160;28;1914;-38
2022/12/23 05:23:10;;;;;;;;;;;;;;;;;;5103854;28;2111;-38
2022/12/23 05:25:38;;;;;;;;;;;;;;;;;;5111388;28;1564;-38
2022/12/23 05:28:06;;;;;;;;;;;;;;;;;;5111604;28;2121;-38
2022/12/23 05:30:36;;;;;;;;;;;;;;;;;;5111781;28;1979;-37
2022/12/23 05:33:03;;;;;;;;;;;;;;;;;;5111828;28;2300;-39
2022/12/23 05:35:31;;;;;;;;;;;;;;;;;;5111284;27;1931;-38
2022/12/23 05:37:58;;;;;;;;;;;;;;;;;;5111822;28;2111;-39
2022/12/23 05:40:25;;;;;;;;;;;;;;;;;;5110948;28;1997;-39
2022/12/23 05:42:54;;;;;;;;;;;;;;;;;;5111478;28;2179;-38
2022/12/23 05:45:21;;;;;;;;;;;;;;;;;;5111617;28;1945;-39
2022/12/23 05:47:48;;;;;;;;;;;;;;;;;;5110794;28;2112;-39
2022/12/23 05:50:16;;;;;;;;;;;;;;;;;;5109970;28;1981;-38
2022/12/23 05:52:43;;;;;;;;;;;;;;;;;;5111014;28;2317;-39
2022/12/23 05:55:10;;;;;;;;;;;;;;;;;;5111493;28;1944;-38
2022/12/23 05:57:38;;;;;;;;;;;;;;;;;;5110955;28;1767;-38
2022/12/23 06:00:06;;;;;;;;;;;;;;;;;;5111312;28;2098;-37
2022/12/23 06:02:37;;;;;;;;;;;;;;;;;;5110825;28;1573;-38
2022/12/23 06:05:05;;;;;;;;;;;;;;;;;;5102296;28;2177;-37
2022/12/23 06:07:32;;;;;;;;;;;;;;;;;;5091168;28;1748;-38
2022/12/23 06:10:00;;;;;;;;;;;;;;;;;;5090905;28;2108;-39
2022/12/23 06:12:27;;;;;;;;;;;;;;;;;;5090108;28;2204;-38
2022/12/23 06:14:54;;;;;;;;;;;;;;;;;;5090795;28;1765;-39
2022/12/23 06:17:21;;;;;;;;;;;;;;;;;;5090434;28;1735;-38
2022/12/23 06:19:49;;;;;;;;;;;;;;;;;;5090740;28;2073;-39
2022/12/23 06:22:20;;;;;;;;;;;;;;;;;;5090786;28;1837;-39
2022/12/23 06:24:47;;;;;;;;;;;;;;;;;;5106229;28;2370;-38
2022/12/23 06:27:15;;;;;;;;;;;;;;;;;;5090790;28;1991;-38
2022/12/23 06:29:42;;;;;;;;;;;;;;;;;;5090790;28;1969;-37
2022/12/23 06:32:09;;;;;;;;;;;;;;;;;;5090277;28;1942;-39
2022/12/23 06:34:36;;;;;;;;;;;;;;;;;;5090652;28;2075;-38
2022/12/23 06:37:04;;;;;;;;;;;;;;;;;;5090813;28;2162;-38
2022/12/23 06:39:31;;;;;;;;;;;;;;;;;;5094404;28;1953;-39
2022/12/23 06:41:58;;;;;;;;;;;;;;;;;;5103307;28;1866;-38
2022/12/23 06:44:25;;;;;;;;;;;;;;;;;;5114059;28;2029;-38
2022/12/23 06:46:52;;;;;;;;;;;;;;;;;;5114658;28;1772;-39
2022/12/23 06:49:19;;;;;;;;;;;;;;;;;;5115057;28;1957;-39
2022/12/23 06:51:46;;;;;;;;;;;;;;;;;;5115045;28;1633;-38
2022/12/23 06:54:14;;;;;;;;;;;;;;;;;;5114994;28;1770;-38
2022/12/23 06:56:41;;;;;;;;;;;;;;;;;;5114654;28;1981;-38
2022/12/23 06:59:09;;;;;;;;;;;;;;;;;;5114346;28;1980;-39
2022/12/23 07:01:36;;;;;;;;;;;;;;;;;;5114007;28;1671;-39
2022/12/23 07:04:04;;;;;;;;;;;;;;;;;;5114313;27;2264;-39
2022/12/23 07:06:31;;;;;;;;;;;;;;;;;;5114661;28;1855;-39
2022/12/23 07:08:59;;;;;;;;;;;;;;;;;;5114756;28;1967;-39
2022/12/23 07:11:27;;;;;;;;;;;;;;;;;;5113551;28;1900;-39
2022/12/23 07:13:54;;;;;;;;;;;;;;;;;;5114503;28;1879;-39
2022/12/23 07:16:21;;;;;;;;;;;;;;;;;;5114215;28;1886;-39
2022/12/23 07:18:48;;;;;;;;;;;;;;;;;;5114724;28;2305;-39
2022/12/23 07:21:15;;;;;;;;;;;;;;;;;;5114267;28;2025;-39
2022/12/23 07:23:52;;;;;;;;;;;;;;;;;;5113699;28;1764;-38
2022/12/23 07:26:19;;;;;;;;;;;;;;;;;;5114445;28;2032;-38
2022/12/23 07:28:48;;;;;;;;;;;;;;;;;;5114157;28;1949;-38
2022/12/23 07:31:16;;;;;;;;;;;;;;;;;;5114153;27;1289;-38
2022/12/23 07:33:43;;;;;;;;;;;;;;;;;;5113887;28;1808;-38
2022/12/23 07:36:10;;;;;;;;;;;;;;;;;;5113526;28;1858;-38
2022/12/23 07:38:37;;;;;;;;;;;;;;;;;;5114380;28;2135;-39
2022/12/23 07:41:04;;;;;;;;;;;;;;;;;;5113875;28;2471;-38
2022/12/23 07:43:32;;;;;;;;;;;;;;;;;;5113458;28;1675;-38
2022/12/23 07:46:04;;;;;;;;;;;;;;;;;;5113416;28;1991;-40
2022/12/23 07:48:31;;;;;;;;;;;;;;;;;;5113270;28;1309;-38
2022/12/23 07:50:59;;;;;;;;;;;;;;;;;;5112629;28;2193;-39
2022/12/23 07:53:26;;;;;;;;;;;;;;;;;;5112549;28;1818;-37
2022/12/23 07:55:54;;;;;;;;;;;;;;;;;;5113545;28;1872;-39
2022/12/23 07:58:23;;;;;;;;;;;;;;;;;;5113276;28;2349;-39
2022/12/23 08:01:02;;;;;;;;;;;;;;;;;;5113233;28;1966;-39
2022/12/23 08:03:30;;;;;;;;;;;;;;;;;;5113155;28;2372;-38
2022/12/23 08:06:04;;;;;;;;;;;;;;;;;;5113224;28;1903;-38
2022/12/23 08:08:31;;;;;;;;;;;;;;;;;;5113333;28;2176;-38
2022/12/23 08:10:59;;;;;;;;;;;;;;;;;;5111596;28;2386;-39
2022/12/23 08:13:27;;;;;;;;;;;;;;;;;;5112784;28;1834;-38
2022/12/23 08:15:55;;;;;;;;;;;;;;;;;;5113109;28;2080;-39
2022/12/23 08:18:22;;;;;;;;;;;;;;;;;;5112959;28;1207;-38
2022/12/23 08:21:00;;;;;;;;;;;;;;;;;;5112674;27;1676;-38
2022/12/23 08:23:28;;;;;;;;;;;;;;;;;;5113143;28;1796;-39
2022/12/23 08:26:06;;;;;;;;;;;;;;;;;;5112615;28;1949;-40
2022/12/23 08:28:34;;;;;;;;;;;;;;;;;;5112691;28;2004;-39
2022/12/23 08:31:04;;;;;;;;;;;;;;;;;;5112766;28;2060;-38
2022/12/23 08:33:32;;;;;;;;;;;;;;;;;;5111569;28;1998;-39
2022/12/23 08:36:00;;;;;;;;;;;;;;;;;;5112379;28;1936;-38
2022/12/23 08:38:27;;;;;;;;;;;;;;;;;;5112350;28;2095;-39
2022/12/23 08:40:54;;;;;;;;;;;;;;;;;;5112460;28;2336;-40
2022/12/23 08:43:21;;;;;;;;;;;;;;;;;;5112731;28;1747;-39
2022/12/23 08:45:48;;;;;;;;;;;;;;;;;;5112279;28;1798;-38
2022/12/23 08:48:16;;;;;;;;;;;;;;;;;;5111723;28;1959;-39
2022/12/23 08:50:44;;;;;;;;;;;;;;;;;;5112812;28;1919;-38
2022/12/23 08:53:12;;;;;;;;;;;;;;;;;;5112494;28;2074;-38
2022/12/23 08:55:40;;;;;;;;;;;;;;;;;;5112357;28;1939;-38
2022/12/23 08:58:08;;;;;;;;;;;;;;;;;;5112158;28;1782;-38
2022/12/23 09:00:36;;;;;;;;;;;;;;;;;;5111465;28;1922;-39
2022/12/23 09:03:03;;;;;;;;;;;;;;;;;;5112061;28;1992;-39
2022/12/23 09:05:31;;;;;;;;;;;;;;;;;;5111584;28;2334;-38
2022/12/23 09:07:58;;;;;;;;;;;;;;;;;;5112251;28;2049;-39
2022/12/23 09:10:25;;;;;;;;;;;;;;;;;;5111829;28;1987;-38
2022/12/23 09:12:53;;;;;;;;;;;;;;;;;;5111890;28;1833;-39
2022/12/23 09:15:25;;;;;;;;;;;;;;;;;;5111622;28;2054;-37
2022/12/23 09:17:53;;;;;;;;;;;;;;;;;;5112174;28;1931;-40
2022/12/23 09:20:20;;;;;;;;;;;;;;;;;;5111782;28;1402;-38
2022/12/23 09:22:47;;;;;;;;;;;;;;;;;;5111751;28;1790;-40
2022/12/23 09:25:16;;;;;;;;;;;;;;;;;;5111776;28;1942;-39
2022/12/23 09:27:43;;;;;;;;;;;;;;;;;;5110094;28;1925;-38
2022/12/23 09:30:10;;;;;;;;;;;;;;;;;;5111878;28;1975;-38
2022/12/23 09:32:40;;;;;;;;;;;;;;;;;;5111630;28;1908;-39
2022/12/23 09:35:07;;;;;;;;;;;;;;;;;;5111346;28;1955;-38
2022/12/23 09:37:35;;;;;;;;;;;;;;;;;;5111655;28;1967;-38
2022/12/23 09:40:02;;;;;;;;;;;;;;;;;;5111523;28;1914;-38
2022/12/23 09:42:42;;;;;;;;;;;;;;;;;;5109910;28;2569;-38
2022/12/23 09:45:13;;;;;;;;;;;;;;;;;;5111334;28;1971;-38
2022/12/23 09:47:41;;;;;;;;;;;;;;;;;;5111290;28;1867;-39
2022/12/23 09:50:29;;;;;;;;;;;;;;;;;;5110807;28;2120;-38
2022/12/23 09:52:59;;;;;;;;;;;;;;;;;;5111863;28;1606;-39
2022/12/23 09:55:42;;;;;;;;;;;;;;;;;;5111614;28;2051;-38
2022/12/23 09:58:17;;;;;;;;;;;;;;;;;;5111232;28;1972;-38
2022/12/23 10:00:54;;;;;;;;;;;;;;;;;;5111270;28;2191;-38
2022/12/23 10:03:24;;;;;;;;;;;;;;;;;;5111171;28;1885;-38
2022/12/23 10:06:07;;;;;;;;;;;;;;;;;;5095473;28;1681;-38
2022/12/23 10:08:34;;;;;;;;;;;;;;;;;;5090980;28;1961;-38
2022/12/23 10:11:25;;;;;;;;;;;;;;;;;;5090580;28;2021;-38
2022/12/23 10:13:57;;;;;;;;;;;;;;;;;;5089749;28;2053;-38
2022/12/23 10:16:26;;;;;;;;;;;;;;;;;;5090591;28;1739;-38
2022/12/23 10:19:19;;;;;;;;;;;;;;;;;;5090179;28;2138;-39
2022/12/23 10:21:48;;;;;;;;;;;;;;;;;;5089045;28;1725;-38
2022/12/23 10:24:15;;;;;;;;;;;;;;;;;;5090593;28;1935;-38
2022/12/23 10:26:50;;;;;;;;;;;;;;;;;;5089192;28;2205;-38
2022/12/23 10:29:25;;;;;;;;;;;;;;;;;;5110457;28;1762;-38
2022/12/23 10:32:04;;;;;;;;;;;;;;;;;;5110445;28;1913;-37
2022/12/23 10:34:50;;;;;;;;;;;;;;;;;;5110367;28;1967;-38
2022/12/23 10:37:27;;;;;;;;;;;;;;;;;;5109334;28;1857;-39
2022/12/23 10:40:02;;;;;;;;;;;;;;;;;;5110761;28;2122;-39
2022/12/23 10:42:34;;;;;;;;;;;;;;;;;;5110475;28;2293;-38
2022/12/23 10:45:22;;;;;;;;;;;;;;;;;;5111267;28;2184;-38
2022/12/23 10:48:02;;;;;;;;;;;;;;;;;;5110557;28;1896;-38
2022/12/23 10:50:44;;;;;;;;;;;;;;;;;;5110537;28;1905;-37
2022/12/23 10:53:19;;;;;;;;;;;;;;;;;;5110171;28;2016;-38
2022/12/23 10:55:47;;;;;;;;;;;;;;;;;;5110894;28;2076;-38
2022/12/23 10:58:17;;;;;;;;;;;;;;;;;;5110803;28;1508;-39
2022/12/23 11:00:47;;;;;;;;;;;;;;;;;;5110853;28;2106;-40
2022/12/23 11:03:30;;;;;;;;;;;;;;;;;;5109573;28;2106;-40
2022/12/23 11:05:58;;;;;;;;;;;;;;;;;;5094383;28;2073;-39
2022/12/23 11:08:26;;;;;;;;;;;;;;;;;;5089570;28;2034;-39
2022/12/23 11:10:53;;;;;;;;;;;;;;;;;;5089741;28;1979;-38
2022/12/23 11:13:25;;;;;;;;;;;;;;;;;;5090305;28;2096;-38
2022/12/23 11:15:54;;;;;;;;;;;;;;;;;;5089909;28;2413;-39
2022/12/23 11:18:21;;;;;;;;;;;;;;;;;;5090485;28;1848;-38
2022/12/23 11:21:05;;;;;;;;;;;;;;;;;;5089904;28;2033;-38
2022/12/23 11:23:34;;;;;;;;;;;;;;;;;;5089600;28;1268;-39
2022/12/23 11:26:03;;;;;;;;;;;;;;;;;;5093338;28;1956;-39
2022/12/23 11:28:31;;;;;;;;;;;;;;;;;;5093732;28;1905;-39
2022/12/23 11:30:58;;;;;;;;;;;;;;;;;;5092340;28;1980;-38
2022/12/23 11:33:28;;;;;;;;;;;;;;;;;;5094001;28;1985;-38
2022/12/23 11:36:04;;;;;;;;;;;;;;;;;;5093578;28;1848;-38
2022/12/23 11:38:32;;;;;;;;;;;;;;;;;;5093109;28;1519;-38
2022/12/23 11:41:00;;;;;;;;;;;;;;;;;;5093452;28;1928;-39
2022/12/23 11:43:27;;;;;;;;;;;;;;;;;;5093423;28;1960;-38
2022/12/23 11:46:14;;;;;;;;;;;;;;;;;;5093688;28;1893;-39
2022/12/23 11:48:42;;;;;;;;;;;;;;;;;;5093156;28;1695;-39
2022/12/23 11:51:09;;;;;;;;;;;;;;;;;;5092815;28;2015;-39
2022/12/23 11:53:41;;;;;;;;;;;;;;;;;;5093105;28;1700;-40
2022/12/23 11:56:10;;;;;;;;;;;;;;;;;;5093056;28;2005;-38
2022/12/23 11:58:49;;;;;;;;;;;;;;;;;;5092881;28;1714;-39
2022/12/23 12:01:19;;;;;;;;;;;;;;;;;;5093223;28;1948;-39
2022/12/23 12:03:49;;;;;;;;;;;;;;;;;;5093213;28;1860;-38
2022/12/23 12:06:18;;;;;;;;;;;;;;;;;;5111273;28;1984;-39
2022/12/23 12:08:48;;;;;;;;;;;;;;;;;;5113134;28;1825;-39
2022/12/23 12:11:30;;;;;;;;;;;;;;;;;;5112023;28;1982;-38
2022/12/23 12:13:59;;;;;;;;;;;;;;;;;;5113032;28;2137;-38
2022/12/23 12:16:28;;;;;;;;;;;;;;;;;;5113239;28;1650;-39
2022/12/23 12:19:16;;;;;;;;;;;;;;;;;;5112947;28;1840;-38
2022/12/23 12:21:44;;;;;;;;;;;;;;;;;;5112914;28;1839;-39
2022/12/23 12:24:25;;;;;;;;;;;;;;;;;;5113120;28;1979;-39
2022/12/23 12:26:56;;;;;;;;;;;;;;;;;;5112625;28;1752;-38
2022/12/23 12:29:27;;;;;;;;;;;;;;;;;;5112963;28;1833;-41
2022/12/23 12:31:55;;;;;;;;;;;;;;;;;;5112339;28;2152;-39
2022/12/23 12:34:30;;;;;;;;;;;;;;;;;;5112437;28;2097;-39
2022/12/23 12:37:16;;;;;;;;;;;;;;;;;;5112679;28;1935;-38
2022/12/23 12:39:50;;;;;;;;;;;;;;;;;;5112753;28;1976;-39
2022/12/23 12:42:34;;;;;;;;;;;;;;;;;;5112829;28;1887;-39
2022/12/23 12:45:09;;;;;;;;;;;;;;;;;;5111178;28;1713;-39
2022/12/23 12:47:46;;;;;;;;;;;;;;;;;;5111927;28;2042;-39
2022/12/23 12:50:32;;;;;;;;;;;;;;;;;;5106175;28;1912;-39
2022/12/23 12:53:05;;;;;;;;;;;;;;;;;;5111973;28;1901;-39
2022/12/23 12:55:34;;;;;;;;;;;;;;;;;;5112115;28;1800;-39
2022/12/23 12:58:07;;;;;;;;;;;;;;;;;;5112225;28;2156;-38
2022/12/23 13:00:43;;;;;;;;;;;;;;;;;;5112122;28;2234;-39
2022/12/23 13:03:24;;;;;;;;;;;;;;;;;;5111994;28;2380;-39
2022/12/23 13:05:51;;;;;;;;;;;;;;;;;;5112209;28;1882;-39
2022/12/23 13:08:38;;;;;;;;;;;;;;;;;;5112254;28;1966;-38
2022/12/23 13:11:19;;;;;;;;;;;;;;;;;;5110415;28;2019;-38
2022/12/23 13:14:06;;;;;;;;;;;;;;;;;;5104344;28;1750;-38
2022/12/23 13:16:47;;;;;;;;;;;;;;;;;;5110623;28;2036;-38
2022/12/23 13:19:17;;;;;;;;;;;;;;;;;;5110291;28;1558;-39
2022/12/23 13:21:55;;;;;;;;;;;;;;;;;;5111948;28;1890;-38
2022/12/23 13:24:37;;;;;;;;;;;;;;;;;;5111637;28;1974;-39
2022/12/23 13:27:12;;;;;;;;;;;;;;;;;;5110829;28;2241;-39
2022/12/23 13:29:40;;;;;;;;;;;;;;;;;;5111484;28;1901;-38
2022/12/23 13:32:16;;;;;;;;;;;;;;;;;;5105980;28;2006;-39
2022/12/23 13:34:47;;;;;;;;;;;;;;;;;;5090325;28;2039;-37
2022/12/23 13:37:15;;;;;;;;;;;;;;;;;;5091367;28;2017;-39
2022/12/23 13:39:49;;;;;;;;;;;;;;;;;;5091431;28;1969;-39
2022/12/23 13:42:23;;;;;;;;;;;;;;;;;;5106519;28;1866;-38
2022/12/23 13:44:51;;;;;;;;;;;;;;;;;;5111821;28;2122;-39
2022/12/23 13:47:27;;;;;;;;;;;;;;;;;;5110519;28;1565;-38
2022/12/23 13:50:01;;;;;;;;;;;;;;;;;;5111694;28;2034;-39
2022/12/23 13:52:28;;;;;;;;;;;;;;;;;;5111240;28;2445;-38
2022/12/23 13:55:20;;;;;;;;;;;;;;;;;;5111335;28;1470;-38
2022/12/23 13:58:10;;;;;;;;;;;;;;;;;;5110157;28;1933;-39
2022/12/23 14:00:37;;;;;;;;;;;;;;;;;;5111020;28;2035;-38
2022/12/23 14:03:25;;;;;;;;;;;;;;;;;;5109022;28;1914;-39
2022/12/23 14:05:52;;;;;;;;;;;;;;;;;;5110697;28;2012;-39
2022/12/23 14:08:22;;;;;;;;;;;;;;;;;;5111241;28;1913;-39
2022/12/23 14:10:52;;;;;;;;;;;;;;;;;;5110812;28;1928;-39
2022/12/23 14:13:21;;;;;;;;;;;;;;;;;;5111302;28;1963;-39
2022/12/23 14:16:12;;;;;;;;;;;;;;;;;;5111222;28;1426;-38
2022/12/23 14:18:48;;;;;;;;;;;;;;;;;;5110541;28;1830;-39
2022/12/23 14:21:25;;;;;;;;;;;;;;;;;;5109359;28;1876;-38
2022/12/23 14:24:19;;;;;;;;;;;;;;;;;;5109981;28;2243;-38
2022/12/23 14:27:05;;;;;;;;;;;;;;;;;;5108971;28;1810;-38
2022/12/23 14:29:33;;;;;;;;;;;;;;;;;;5110910;28;1815;-39
2022/12/23 14:32:00;;;;;;;;;;;;;;;;;;5110525;28;2020;-39
2022/12/23 14:34:29;;;;;;;;;;;;;;;;;;5111176;28;1751;-38
2022/12/23 14:37:14;;;;;;;;;;;;;;;;;;5110472;28;2067;-39
2022/12/23 14:39:42;;;;;;;;;;;;;;;;;;5111041;28;1978;-38
2022/12/23 14:42:10;;;;;;;;;;;;;;;;;;5111184;28;1672;-38
2022/12/23 14:44:45;;;;;;;;;;;;;;;;;;5110787;28;1674;-38
2022/12/23 14:47:28;;;;;;;;;;;;;;;;;;5110391;28;1880;-38
2022/12/23 14:49:55;;;;;;;;;;;;;;;;;;5110854;28;1935;-38
2022/12/23 14:52:34;;;;;;;;;;;;;;;;;;5110202;28;2099;-38
2022/12/23 14:55:22;;;;;;;;;;;;;;;;;;5110839;28;1759;-39
2022/12/23 14:58:27;;;;;;;;;;;;;;;;;;5110853;28;1859;-39
2022/12/23 15:01:23;;;;;;;;;;;;;;;;;;5107700;28;1837;-39
2022/12/23 15:03:51;;;;;;;;;;;;;;;;;;5042497;28;1640;-39
2022/12/23 15:06:39;;;;;;;;;;;;;;;;;;5093742;28;1978;-38
2022/12/23 15:09:08;;;;;;;;;;;;;;;;;;5094231;28;1373;-39
2022/12/23 15:11:36;;;;;;;;;;;;;;;;;;5093867;28;2256;-39
2022/12/23 15:14:06;;;;;;;;;;;;;;;;;;5094357;28;1855;-39
2022/12/23 15:16:35;;;;;;;;;;;;;;;;;;5093152;28;1998;-39
2022/12/23 15:19:16;;;;;;;;;;;;;;;;;;5093774;28;1852;-38
2022/12/23 15:21:43;;;;;;;;;;;;;;;;;;5094080;28;2022;-37
2022/12/23 15:24:18;;;;;;;;;;;;;;;;;;5093177;28;1997;-38
2022/12/23 15:26:48;;;;;;;;;;;;;;;;;;5093576;28;1933;-38
2022/12/23 15:29:35;;;;;;;;;;;;;;;;;;5093727;28;2076;-39
2022/12/23 15:32:03;;;;;;;;;;;;;;;;;;5093465;28;2008;-38
2022/12/23 15:34:31;;;;;;;;;;;;;;;;;;5094008;28;1948;-38
2022/12/23 15:36:58;;;;;;;;;;;;;;;;;;5093963;28;2107;-38
2022/12/23 15:39:33;;;;;;;;;;;;;;;;;;5093521;28;1917;-38
2022/12/23 15:42:01;;;;;;;;;;;;;;;;;;5093360;28;2106;-39
2022/12/23 15:44:35;;;;;;;;;;;;;;;;;;5093259;28;1782;-38
2022/12/23 15:47:16;;;;;;;;;;;;;;;;;;5093652;28;1373;-39
2022/12/23 15:49:44;;;;;;;;;;;;;;;;;;5095412;28;1859;-39
2022/12/23 15:52:11;;;;;;;;;;;;;;;;;;5112387;28;1979;-39
2022/12/23 15:54:54;;;;;;;;;;;;;;;;;;5091549;28;1922;-39
2022/12/23 15:57:22;;;;;;;;;;;;;;;;;;5093277;28;1994;-39
2022/12/23 15:59:49;;;;;;;;;;;;;;;;;;5093765;28;1553;-39
2022/12/23 16:02:31;;;;;;;;;;;;;;;;;;5093156;28;2488;-38
2022/12/23 16:05:24;;;;;;;;;;;;;;;;;;5104076;28;2104;-38
2022/12/23 16:08:06;;;;;;;;;;;;;;;;;;5113361;28;1916;-38
2022/12/23 16:10:33;;;;;;;;;;;;;;;;;;5112995;28;1824;-39
2022/12/23 16:13:01;;;;;;;;;;;;;;;;;;5113199;28;1915;-39
2022/12/23 16:15:29;;;;;;;;;;;;;;;;;;5113454;28;2044;-38
2022/12/23 16:18:15;;;;;;;;;;;;;;;;;;5113148;28;2174;-39
2022/12/23 16:20:44;;;;;;;;;;;;;;;;;;5112512;28;2136;-39
2022/12/23 16:23:12;;;;;;;;;;;;;;;;;;5113290;28;2078;-39
2022/12/23 16:25:43;;;;;;;;;;;;;;;;;;5112752;28;2060;-39
2022/12/23 16:28:20;;;;;;;;;;;;;;;;;;5113040;28;2074;-39
2022/12/23 16:30:48;;;;;;;;;;;;;;;;;;5111820;28;2071;-38
2022/12/23 16:33:31;;;;;;;;;;;;;;;;;;5113036;28;2011;-38
2022/12/23 16:36:15;;;;;;;;;;;;;;;;;;5111354;28;1802;-39
2022/12/23 16:38:42;;;;;;;;;;;;;;;;;;5113060;28;2016;-39
2022/12/23 16:41:09;;;;;;;;;;;;;;;;;;5112608;28;2037;-39
2022/12/23 16:43:36;;;;;;;;;;;;;;;;;;5112901;28;1625;-39
2022/12/23 16:46:03;;;;;;;;;;;;;;;;;;5112482;28;1972;-38
2022/12/23 16:48:33;;;;;;;;;;;;;;;;;;5112158;28;1885;-39
2022/12/23 16:51:01;;;;;;;;;;;;;;;;;;5112778;28;1879;-38
2022/12/23 16:53:28;;;;;;;;;;;;;;;;;;5112349;28;2001;-39
2022/12/23 16:55:55;;;;;;;;;;;;;;;;;;5112456;28;1773;-38
2022/12/23 16:58:26;;;;;;;;;;;;;;;;;;5112269;28;1974;-39
2022/12/23 17:00:53;;;;;;;;;;;;;;;;;;5111870;28;1788;-39
2022/12/23 17:03:20;;;;;;;;;;;;;;;;;;5112660;28;1214;-38
2022/12/23 17:05:48;;;;;;;;;;;;;;;;;;5097314;28;1932;-39
2022/12/23 17:08:15;;;;;;;;;;;;;;;;;;5090796;28;2087;-39
2022/12/23 17:10:43;;;;;;;;;;;;;;;;;;5091666;28;1932;-38
2022/12/23 17:13:11;;;;;;;;;;;;;;;;;;5110700;28;2088;-39
2022/12/23 17:15:40;;;;;;;;;;;;;;;;;;5112095;28;2007;-39
2022/12/23 17:18:14;;;;;;;;;;;;;;;;;;5112152;28;2054;-39
2022/12/23 17:20:43;;;;;;;;;;;;;;;;;;5111359;28;1823;-38
2022/12/23 17:23:39;;;;;;;;;;;;;;;;;;5111547;28;1637;-39
2022/12/23 17:26:06;;;;;;;;;;;;;;;;;;5098708;28;1876;-39
2022/12/23 17:28:33;;;;;;;;;;;;;;;;;;5111835;28;2063;-39
2022/12/23 17:31:00;;;;;;;;;;;;;;;;;;5111740;28;1854;-39
2022/12/23 17:33:30;;;;;;;;;;;;;;;;;;5111565;28;1972;-39
2022/12/23 17:35:58;;;;;;;;;;;;;;;;;;5112106;28;1789;-39
2022/12/23 17:38:28;;;;;;;;;;;;;;;;;;5111187;28;1852;-39
2022/12/23 17:40:57;;;;;;;;;;;;;;;;;;5111987;28;1940;-39
2022/12/23 17:43:25;;;;;;;;;;;;;;;;;;5111793;28;1659;-38
2022/12/23 17:45:52;;;;;;;;;;;;;;;;;;5111928;28;1935;-39
2022/12/23 17:48:19;;;;;;;;;;;;;;;;;;5111501;28;1912;-39
2022/12/23 17:50:51;;;;;;;;;;;;;;;;;;5111613;28;1692;-39
2022/12/23 17:53:18;;;;;;;;;;;;;;;;;;5110304;28;1905;-39
2022/12/23 17:55:45;;;;;;;;;;;;;;;;;;5112074;28;1896;-39
2022/12/23 17:58:13;;;;;;;;;;;;;;;;;;5110622;28;1177;-39
2022/12/23 18:00:40;;;;;;;;;;;;;;;;;;5111223;28;2047;-39
2022/12/23 18:03:16;;;;;;;;;;;;;;;;;;5111555;28;1881;-39